Time;durP1;ratioP1;P1;durP2;ratioP2;P2;SDS_P1;SDS_P2;PMS_P1;PMS_P2;Temp;Humidity;BMP_temperature;BMP_pressure;BME280_temperature;BME280_humidity;BME280_pressure;Samples;Min_cycle;Max_cycle;Signal;HPM_P1;HPM_P2
2021/04/11 00:00:42;;;;;;;25.37;9.63;;;;;;;;;;5084024;28;20111;-69
2021/04/11 00:03:19;;;;;;;25.97;10.23;;;;;;;;;;5081397;28;21283;-69
2021/04/11 00:05:45;;;;;;;25.70;9.87;;;;;;;;;;5081143;28;20173;-69
2021/04/11 00:08:11;;;;;;;35.97;11.27;;;;;;;;;;5085531;28;20114;-69
2021/04/11 00:10:38;;;;;;;29.33;10.67;;;;;;;;;;5080605;28;20535;-69
2021/04/11 00:13:05;;;;;;;33.70;11.30;;;;;;;;;;5086310;28;20121;-69
2021/04/11 00:15:31;;;;;;;27.43;11.07;;;;;;;;;;5082392;28;20396;-69
2021/04/11 00:17:56;;;;;;;31.97;11.20;;;;;;;;;;5083550;28;20028;-66
2021/04/11 00:20:22;;;;;;;33.57;11.90;;;;;;;;;;5084596;28;20055;-66
2021/04/11 00:22:47;;;;;;;35.83;12.03;;;;;;;;;;5085299;28;20511;-67
2021/04/11 00:25:16;;;;;;;37.20;12.40;;;;;;;;;;5084338;28;20036;-67
2021/04/11 00:27:41;;;;;;;33.87;11.57;;;;;;;;;;5084806;28;20028;-69
2021/04/11 00:30:07;;;;;;;33.47;12.93;;;;;;;;;;5084155;28;20058;-69
2021/04/11 00:32:32;;;;;;;33.53;12.00;;;;;;;;;;5082542;28;20079;-69
2021/04/11 00:34:57;;;;;;;31.77;11.73;;;;;;;;;;5083670;28;20032;-69
2021/04/11 00:37:23;;;;;;;38.03;12.50;;;;;;;;;;5085144;28;20485;-69
2021/04/11 00:39:48;;;;;;;37.13;12.07;;;;;;;;;;5080995;28;20107;-69
2021/04/11 00:42:18;;;;;;;32.43;11.30;;;;;;;;;;5085696;28;20616;-69
2021/04/11 00:44:44;;;;;;;34.60;12.90;;;;;;;;;;5078224;28;20425;-69
2021/04/11 00:47:09;;;;;;;36.67;12.37;;;;;;;;;;5082292;28;20115;-69
2021/04/11 00:49:37;;;;;;;32.90;11.80;;;;;;;;;;5079429;28;20058;-69
2021/04/11 00:52:03;;;;;;;27.63;10.13;;;;;;;;;;5085519;28;20036;-69
2021/04/11 00:54:28;;;;;;;27.83;10.37;;;;;;;;;;5082442;28;20042;-69
2021/04/11 00:56:54;;;;;;;32.50;10.67;;;;;;;;;;5071238;28;20035;-69
2021/04/11 00:59:20;;;;;;;31.27;11.03;;;;;;;;;;5083182;28;20036;-69
2021/04/11 01:01:46;;;;;;;33.03;11.80;;;;;;;;;;5084390;28;20036;-69
2021/04/11 01:06:48;;;;;;;29.83;10.07;;;;;;;;;;5062639;28;20080;-67
2021/04/11 01:09:16;;;;;;;29.03;11.03;;;;;;;;;;5064078;28;20379;-67
2021/04/11 01:11:42;;;;;;;29.63;11.07;;;;;;;;;;5063936;28;20032;-67
2021/04/11 01:14:08;;;;;;;36.97;11.37;;;;;;;;;;5061946;28;20032;-67
2021/04/11 01:16:34;;;;;;;32.57;10.17;;;;;;;;;;5065863;28;20123;-67
2021/04/11 01:18:59;;;;;;;32.47;10.80;;;;;;;;;;5070179;28;20047;-67
2021/04/11 01:21:42;;;;;;;29.07;10.47;;;;;;;;;;5070388;28;20434;-67
2021/04/11 01:24:10;;;;;;;29.23;9.73;;;;;;;;;;5065293;28;20031;-67
2021/04/11 01:26:36;;;;;;;31.87;10.17;;;;;;;;;;5067455;28;20533;-67
2021/04/11 01:29:02;;;;;;;28.70;10.03;;;;;;;;;;5064420;28;20081;-67
2021/04/11 01:31:33;;;;;;;28.37;9.40;;;;;;;;;;5069567;28;20032;-66
2021/04/11 01:33:59;;;;;;;31.65;10.40;;;;;;;;;;5070492;28;20025;-66
2021/04/11 01:36:25;;;;;;;32.57;10.90;;;;;;;;;;5070515;28;20476;-66
2021/04/11 01:38:51;;;;;;;24.87;8.90;;;;;;;;;;5052974;28;20099;-67
2021/04/11 01:41:25;;;;;;;30.23;10.10;;;;;;;;;;5064600;28;20598;-67
2021/04/11 01:43:51;;;;;;;27.90;9.37;;;;;;;;;;5070473;28;20009;-67
2021/04/11 01:46:18;;;;;;;25.23;9.63;;;;;;;;;;5069295;28;20035;-67
2021/04/11 01:48:44;;;;;;;27.00;9.10;;;;;;;;;;5069767;28;20027;-67
2021/04/11 01:51:10;;;;;;;25.83;9.07;;;;;;;;;;5070100;28;20020;-67
2021/04/11 01:53:36;;;;;;;29.00;9.87;;;;;;;;;;5070510;28;20396;-67
2021/04/11 01:56:03;;;;;;;25.87;8.43;;;;;;;;;;5069428;28;20099;-67
2021/04/11 01:58:29;;;;;;;29.37;9.20;;;;;;;;;;5069837;28;20083;-67
2021/04/11 02:01:06;;;;;;;26.10;8.83;;;;;;;;;;5070042;28;20480;-67
2021/04/11 02:03:31;;;;;;;23.87;8.17;;;;;;;;;;5071419;28;20016;-67
2021/04/11 02:06:00;;;;;;;22.57;8.10;;;;;;;;;;5069562;28;20128;-67
2021/04/11 02:08:26;;;;;;;25.63;9.00;;;;;;;;;;5074032;28;20094;-67
2021/04/11 02:10:52;;;;;;;26.83;8.20;;;;;;;;;;5061055;28;20025;-67
2021/04/11 02:13:20;;;;;;;20.80;7.33;;;;;;;;;;5055571;28;20063;-67
2021/04/11 02:15:46;;;;;;;21.67;8.00;;;;;;;;;;5062721;28;20435;-67
2021/04/11 02:18:12;;;;;;;21.23;7.67;;;;;;;;;;5072950;28;20465;-67
2021/04/11 02:20:38;;;;;;;23.30;7.70;;;;;;;;;;5067245;28;20108;-66
2021/04/11 02:23:05;;;;;;;24.80;8.30;;;;;;;;;;5072767;28;20009;-66
2021/04/11 02:25:32;;;;;;;23.17;7.73;;;;;;;;;;5068432;28;20500;-66
2021/04/11 02:27:58;;;;;;;21.57;7.73;;;;;;;;;;5056183;28;20016;-66
2021/04/11 02:30:24;;;;;;;20.00;7.67;;;;;;;;;;5068662;28;20111;-66
2021/04/11 02:32:50;;;;;;;20.53;7.03;;;;;;;;;;5067084;28;20120;-66
2021/04/11 02:35:17;;;;;;;18.97;7.10;;;;;;;;;;5071901;28;20028;-67
2021/04/11 02:37:44;;;;;;;18.00;6.73;;;;;;;;;;5068115;28;20031;-67
2021/04/11 02:40:15;;;;;;;21.03;7.73;;;;;;;;;;5068179;28;20383;-66
2021/04/11 02:42:40;;;;;;;17.50;7.33;;;;;;;;;;5073360;28;20016;-67
2021/04/11 02:45:08;;;;;;;17.53;7.13;;;;;;;;;;5066571;28;20029;-67
2021/04/11 02:47:34;;;;;;;20.37;8.20;;;;;;;;;;5059314;28;20028;-67
2021/04/11 02:49:59;;;;;;;19.10;7.23;;;;;;;;;;5067849;28;20028;-67
2021/04/11 02:52:27;;;;;;;20.93;6.73;;;;;;;;;;5066477;28;20472;-67
2021/04/11 02:54:53;;;;;;;16.03;6.60;;;;;;;;;;5068983;28;20103;-67
2021/04/11 02:57:19;;;;;;;18.37;6.43;;;;;;;;;;5069902;28;20032;-67
2021/04/11 02:59:45;;;;;;;19.57;6.57;;;;;;;;;;5063200;28;20376;-67
2021/04/11 03:02:11;;;;;;;16.10;6.70;;;;;;;;;;5069831;28;20329;-67
2021/04/11 03:04:36;;;;;;;16.37;6.27;;;;;;;;;;5068591;28;20406;-67
2021/04/11 03:07:08;;;;;;;19.57;6.73;;;;;;;;;;5071294;28;20040;-67
2021/04/11 03:09:54;;;;;;;15.50;6.30;;;;;;;;;;5066123;28;20086;-67
2021/04/11 03:12:19;;;;;;;16.87;6.33;;;;;;;;;;5064272;28;20035;-67
2021/04/11 03:14:45;;;;;;;17.83;6.23;;;;;;;;;;5066883;28;20025;-67
2021/04/11 03:17:14;;;;;;;16.73;6.30;;;;;;;;;;5071957;28;20016;-67
2021/04/11 03:19:42;;;;;;;15.90;6.30;;;;;;;;;;5070171;28;20035;-67
2021/04/11 03:22:07;;;;;;;16.67;5.87;;;;;;;;;;5061307;28;20013;-67
2021/04/11 03:24:33;;;;;;;15.07;5.93;;;;;;;;;;5066124;28;20024;-67
2021/04/11 03:27:10;;;;;;;16.03;6.73;;;;;;;;;;5066345;28;20086;-67
2021/04/11 03:29:40;;;;;;;15.73;6.60;;;;;;;;;;5064540;28;20041;-67
2021/04/11 03:32:09;;;;;;;13.97;5.70;;;;;;;;;;5060161;28;20104;-67
2021/04/11 03:34:35;;;;;;;14.77;6.30;;;;;;;;;;5070800;28;20024;-67
2021/04/11 03:37:02;;;;;;;17.30;5.87;;;;;;;;;;5064622;28;20017;-67
2021/04/11 03:39:28;;;;;;;13.67;5.83;;;;;;;;;;5069417;28;21361;-67
2021/04/11 03:41:53;;;;;;;13.77;5.97;;;;;;;;;;5058379;28;20029;-67
2021/04/11 03:44:20;;;;;;;13.40;5.53;;;;;;;;;;5055858;28;20094;-67
2021/04/11 03:47:06;;;;;;;15.63;5.93;;;;;;;;;;5071024;28;20480;-67
2021/04/11 03:49:32;;;;;;;12.60;5.20;;;;;;;;;;5068909;28;20060;-67
2021/04/11 03:51:58;;;;;;;14.10;5.73;;;;;;;;;;5053948;28;20060;-68
2021/04/11 03:54:25;;;;;;;11.73;5.30;;;;;;;;;;5069721;28;20388;-67
2021/04/11 03:57:13;;;;;;;13.03;5.53;;;;;;;;;;5065675;28;20033;-67
2021/04/11 03:59:41;;;;;;;12.93;5.67;;;;;;;;;;5055071;28;20028;-67
2021/04/11 04:02:07;;;;;;;12.77;5.73;;;;;;;;;;5062740;28;20013;-67
2021/04/11 04:04:33;;;;;;;14.97;6.27;;;;;;;;;;5069159;28;20127;-67
2021/04/11 04:07:04;;;;;;;14.00;4.97;;;;;;;;;;5070277;28;20022;-67
2021/04/11 04:09:30;;;;;;;15.57;6.03;;;;;;;;;;5070162;28;20024;-68
2021/04/11 04:12:03;;;;;;;15.47;5.67;;;;;;;;;;5062092;28;20053;-67
2021/04/11 04:14:29;;;;;;;13.87;5.50;;;;;;;;;;5064143;28;20052;-67
2021/04/11 04:16:58;;;;;;;11.47;5.23;;;;;;;;;;5068439;28;20017;-67
2021/04/11 04:19:23;;;;;;;14.93;5.20;;;;;;;;;;5060112;28;20551;-67
2021/04/11 04:22:00;;;;;;;14.30;5.60;;;;;;;;;;5067539;28;20127;-68
2021/04/11 04:24:31;;;;;;;14.03;5.00;;;;;;;;;;5070084;28;20185;-67
2021/04/11 04:27:00;;;;;;;16.33;5.60;;;;;;;;;;5051938;28;20021;-67
2021/04/11 04:29:37;;;;;;;13.20;4.73;;;;;;;;;;5066995;28;20052;-67
2021/04/11 04:32:21;;;;;;;15.53;4.97;;;;;;;;;;5062954;28;20032;-67
2021/04/11 04:35:09;;;;;;;11.57;5.07;;;;;;;;;;5066512;28;20032;-67
2021/04/11 04:37:37;;;;;;;12.70;4.93;;;;;;;;;;5061777;28;20021;-67
2021/04/11 04:40:22;;;;;;;13.30;5.17;;;;;;;;;;5065905;28;20021;-67
2021/04/11 04:42:50;;;;;;;13.37;4.67;;;;;;;;;;5024553;28;20036;-67
2021/04/11 04:45:15;;;;;;;14.87;4.77;;;;;;;;;;5061634;28;20048;-67
2021/04/11 04:48:10;;;;;;;14.93;5.70;;;;;;;;;;5069661;28;20113;-67
2021/04/11 04:50:49;;;;;;;16.93;6.37;;;;;;;;;;5046683;28;20033;-67
2021/04/11 04:53:17;;;;;;;19.17;6.40;;;;;;;;;;5068148;28;20024;-67
2021/04/11 04:55:47;;;;;;;19.43;6.80;;;;;;;;;;5063568;28;20025;-68
2021/04/11 04:58:14;;;;;;;18.67;6.77;;;;;;;;;;5064086;28;20033;-67
2021/04/11 05:00:43;;;;;;;17.67;6.40;;;;;;;;;;5058893;28;20029;-68
2021/04/11 05:03:12;;;;;;;15.67;6.00;;;;;;;;;;5068198;28;20548;-67
2021/04/11 05:05:44;;;;;;;15.67;6.17;;;;;;;;;;5065665;28;20052;-67
2021/04/11 05:08:30;;;;;;;14.20;5.73;;;;;;;;;;5068501;28;20048;-67
2021/04/11 05:11:01;;;;;;;15.57;6.03;;;;;;;;;;5065559;28;20045;-67
2021/04/11 05:13:30;;;;;;;13.40;5.57;;;;;;;;;;5061690;28;20028;-68
2021/04/11 05:16:02;;;;;;;13.20;5.70;;;;;;;;;;5059423;28;20287;-67
2021/04/11 05:18:30;;;;;;;11.70;5.57;;;;;;;;;;5055997;28;20449;-67
2021/04/11 05:20:59;;;;;;;14.90;5.20;;;;;;;;;;5069242;28;20024;-67
2021/04/11 05:23:37;;;;;;;12.33;5.93;;;;;;;;;;5065889;28;20017;-67
2021/04/11 05:26:07;;;;;;;11.43;5.33;;;;;;;;;;5068110;28;20190;-67
2021/04/11 05:28:32;;;;;;;11.73;5.33;;;;;;;;;;5066794;28;20023;-67
2021/04/11 05:31:04;;;;;;;11.03;4.70;;;;;;;;;;5065068;28;20020;-67
2021/04/11 05:33:30;;;;;;;13.57;5.53;;;;;;;;;;5061809;28;20028;-68
2021/04/11 05:36:01;;;;;;;12.60;5.07;;;;;;;;;;5060758;28;20354;-68
2021/04/11 05:38:36;;;;;;;12.53;5.37;;;;;;;;;;5069518;28;20020;-68
2021/04/11 05:41:11;;;;;;;15.30;5.60;;;;;;;;;;5067301;28;20016;-68
2021/04/11 05:43:41;;;;;;;11.63;5.10;;;;;;;;;;5062397;28;20473;-68
2021/04/11 05:46:11;;;;;;;11.83;4.77;;;;;;;;;;5064108;28;20098;-68
2021/04/11 05:48:44;;;;;;;12.33;5.47;;;;;;;;;;5068488;28;20028;-68
2021/04/11 05:51:18;;;;;;;13.13;5.43;;;;;;;;;;5065099;28;20365;-68
2021/04/11 05:54:09;;;;;;;12.47;4.60;;;;;;;;;;5059270;28;20056;-68
2021/04/11 05:56:36;;;;;;;12.27;5.60;;;;;;;;;;5061027;28;20040;-68
2021/04/11 05:59:05;;;;;;;12.30;5.00;;;;;;;;;;5067705;28;20015;-67
2021/04/11 06:01:33;;;;;;;12.10;5.03;;;;;;;;;;5065728;28;20012;-67
2021/04/11 06:04:04;;;;;;;13.17;4.53;;;;;;;;;;5061505;28;20025;-67
2021/04/11 06:06:29;;;;;;;12.37;5.27;;;;;;;;;;5066008;28;20041;-67
2021/04/11 06:08:58;;;;;;;11.50;4.47;;;;;;;;;;5067996;28;20025;-67
2021/04/11 06:11:23;;;;;;;11.70;4.60;;;;;;;;;;5065295;28;20033;-67
2021/04/11 06:13:56;;;;;;;10.63;4.17;;;;;;;;;;5068746;28;20028;-67
2021/04/11 06:16:22;;;;;;;10.60;4.10;;;;;;;;;;5060697;28;20024;-67
2021/04/11 06:18:50;;;;;;;10.63;4.57;;;;;;;;;;5067499;28;20087;-67
2021/04/11 06:21:35;;;;;;;10.00;3.43;;;;;;;;;;5065998;28;20096;-67
2021/04/11 06:24:06;;;;;;;9.03;3.87;;;;;;;;;;5009579;28;20028;-67
2021/04/11 06:26:35;;;;;;;10.93;3.27;;;;;;;;;;5067105;28;20020;-67
2021/04/11 06:29:03;;;;;;;10.03;3.53;;;;;;;;;;5068110;28;20020;-67
2021/04/11 06:31:34;;;;;;;6.87;2.70;;;;;;;;;;5053029;28;20350;-67
2021/04/11 06:34:21;;;;;;;7.00;2.90;;;;;;;;;;5065948;28;20024;-67
2021/04/11 06:36:50;;;;;;;6.07;2.63;;;;;;;;;;5064348;28;20423;-67
2021/04/11 06:39:21;;;;;;;5.17;1.90;;;;;;;;;;5066404;28;20471;-67
2021/04/11 06:41:56;;;;;;;4.30;1.70;;;;;;;;;;5065317;28;20047;-66
2021/04/11 06:44:21;;;;;;;5.03;2.47;;;;;;;;;;5055814;28;20429;-66
2021/04/11 06:46:56;;;;;;;3.97;1.93;;;;;;;;;;5066632;28;20103;-66
2021/04/11 06:49:48;;;;;;;5.23;2.47;;;;;;;;;;5071148;28;20029;-66
2021/04/11 06:52:22;;;;;;;6.40;2.83;;;;;;;;;;5058000;28;20123;-66
2021/04/11 06:55:06;;;;;;;6.77;3.43;;;;;;;;;;5067448;28;20056;-66
2021/04/11 06:57:38;;;;;;;7.50;3.00;;;;;;;;;;5056558;28;20025;-66
2021/04/11 07:00:03;;;;;;;7.40;3.75;;;;;;;;;;5067985;28;20350;-66
2021/04/11 07:02:32;;;;;;;6.83;2.93;;;;;;;;;;5065942;28;20046;-66
2021/04/11 07:05:22;;;;;;;6.53;3.07;;;;;;;;;;5063437;28;20393;-66
2021/04/11 07:07:59;;;;;;;5.93;2.40;;;;;;;;;;5067094;28;20016;-66
2021/04/11 07:10:30;;;;;;;6.77;3.00;;;;;;;;;;5067387;28;20033;-66
2021/04/11 07:13:02;;;;;;;7.47;2.90;;;;;;;;;;5062544;28;20468;-66
2021/04/11 07:15:33;;;;;;;7.50;3.23;;;;;;;;;;5058461;28;20383;-66
2021/04/11 07:18:07;;;;;;;8.07;2.93;;;;;;;;;;5064411;28;20021;-66
2021/04/11 07:20:51;;;;;;;6.43;2.97;;;;;;;;;;5053422;28;20024;-66
2021/04/11 07:23:35;;;;;;;7.83;3.27;;;;;;;;;;5059263;28;20267;-66
2021/04/11 07:26:03;;;;;;;9.07;3.53;;;;;;;;;;5059967;28;20362;-66
2021/04/11 07:28:37;;;;;;;9.73;3.80;;;;;;;;;;5063999;28;20029;-66
2021/04/11 07:31:03;;;;;;;6.97;3.37;;;;;;;;;;5063189;28;20035;-66
2021/04/11 07:33:46;;;;;;;6.40;2.70;;;;;;;;;;5063063;28;20020;-66
2021/04/11 07:36:21;;;;;;;6.00;2.23;;;;;;;;;;5059469;28;20032;-66
2021/04/11 07:39:05;;;;;;;8.10;3.50;;;;;;;;;;5060611;28;20017;-66
2021/04/11 07:41:39;;;;;;;7.77;3.30;;;;;;;;;;5057250;28;20408;-66
2021/04/11 07:44:10;;;;;;;9.67;3.30;;;;;;;;;;5059710;28;20055;-66
2021/04/11 07:46:41;;;;;;;7.63;3.00;;;;;;;;;;5067310;28;20039;-66
2021/04/11 07:49:12;;;;;;;9.00;3.03;;;;;;;;;;5070614;28;20750;-66
2021/04/11 07:51:37;;;;;;;9.40;3.20;;;;;;;;;;5068458;28;20271;-66
2021/04/11 07:54:07;;;;;;;9.70;3.37;;;;;;;;;;5067150;28;20039;-66
2021/04/11 07:56:35;;;;;;;9.70;3.47;;;;;;;;;;5054598;28;20028;-66
2021/04/11 07:59:01;;;;;;;7.13;2.73;;;;;;;;;;5059026;28;20156;-66
2021/04/11 08:01:49;;;;;;;9.13;2.93;;;;;;;;;;5062261;28;20119;-66
2021/04/11 08:04:26;;;;;;;9.30;2.90;;;;;;;;;;5065897;28;20029;-65
2021/04/11 08:06:57;;;;;;;5.37;2.23;;;;;;;;;;5068090;28;20576;-66
2021/04/11 08:09:34;;;;;;;8.17;3.33;;;;;;;;;;5064280;28;20416;-66
2021/04/11 08:11:59;;;;;;;7.13;3.10;;;;;;;;;;5060320;28;20028;-66
2021/04/11 08:14:40;;;;;;;5.73;3.03;;;;;;;;;;5059212;28;20522;-65
2021/04/11 08:17:18;;;;;;;6.37;2.87;;;;;;;;;;5057973;28;20060;-65
2021/04/11 08:19:46;;;;;;;6.97;2.37;;;;;;;;;;5066093;28;20033;-66
2021/04/11 08:22:29;;;;;;;4.63;2.20;;;;;;;;;;5066824;28;20103;-65
2021/04/11 08:25:11;;;;;;;4.47;1.37;;;;;;;;;;5050308;28;20053;-68
2021/04/11 08:27:36;;;;;;;8.27;1.83;;;;;;;;;;5064617;28;20024;-67
2021/04/11 08:30:01;;;;;;;5.23;2.40;;;;;;;;;;5064515;28;20774;-67
2021/04/11 08:32:26;;;;;;;4.80;2.13;;;;;;;;;;5067587;28;20560;-67
2021/04/11 08:34:52;;;;;;;6.53;2.73;;;;;;;;;;5064858;28;20513;-65
2021/04/11 08:37:20;;;;;;;5.23;1.67;;;;;;;;;;5068311;28;20028;-65
2021/04/11 08:39:45;;;;;;;4.80;2.10;;;;;;;;;;5066678;28;20024;-67
2021/04/11 08:42:19;;;;;;;5.37;1.83;;;;;;;;;;5068600;28;20286;-67
2021/04/11 08:44:56;;;;;;;4.10;1.43;;;;;;;;;;5061867;28;20028;-67
2021/04/11 08:47:22;;;;;;;5.13;1.80;;;;;;;;;;5066663;28;20838;-67
2021/04/11 08:49:56;;;;;;;5.20;2.20;;;;;;;;;;5067067;28;20377;-67
2021/04/11 08:52:23;;;;;;;4.97;2.03;;;;;;;;;;5068916;28;20094;-66
2021/04/11 08:54:48;;;;;;;4.13;1.70;;;;;;;;;;5065580;28;20369;-66
2021/04/11 08:57:13;;;;;;;4.93;2.00;;;;;;;;;;5066482;28;20845;-66
2021/04/11 08:59:50;;;;;;;5.80;1.60;;;;;;;;;;5062875;28;20041;-66
2021/04/11 09:02:25;;;;;;;2.57;1.20;;;;;;;;;;5068236;28;20059;-65
2021/04/11 09:04:57;;;;;;;3.53;1.60;;;;;;;;;;5049996;28;20283;-65
2021/04/11 09:07:23;;;;;;;3.90;1.90;;;;;;;;;;5070271;28;20725;-66
2021/04/11 09:09:51;;;;;;;4.07;1.30;;;;;;;;;;5050100;28;20701;-65
2021/04/11 09:12:36;;;;;;;2.50;1.20;;;;;;;;;;5063074;28;20068;-65
2021/04/11 09:15:10;;;;;;;4.13;2.07;;;;;;;;;;5060216;28;20450;-65
2021/04/11 09:17:45;;;;;;;3.40;1.47;;;;;;;;;;5064830;28;20290;-65
2021/04/11 09:20:14;;;;;;;2.33;0.97;;;;;;;;;;5056834;28;20267;-65
2021/04/11 09:22:58;;;;;;;3.13;1.20;;;;;;;;;;5057719;28;20037;-65
2021/04/11 09:25:28;;;;;;;3.10;1.57;;;;;;;;;;5061832;28;20064;-65
2021/04/11 09:28:00;;;;;;;3.63;1.43;;;;;;;;;;5059681;28;20048;-65
2021/04/11 09:30:43;;;;;;;2.77;1.40;;;;;;;;;;5048330;28;20148;-65
2021/04/11 09:33:19;;;;;;;3.13;1.30;;;;;;;;;;5056329;28;20107;-65
2021/04/11 09:35:51;;;;;;;4.50;1.33;;;;;;;;;;5064028;28;20547;-65
2021/04/11 09:38:16;;;;;;;1.93;1.00;;;;;;;;;;5063412;28;20359;-65
2021/04/11 09:41:00;;;;;;;1.87;1.00;;;;;;;;;;5053785;28;20551;-65
2021/04/11 09:43:31;;;;;;;3.67;1.37;;;;;;;;;;5065348;28;20391;-65
2021/04/11 09:46:04;;;;;;;3.23;1.47;;;;;;;;;;5055896;28;20028;-65
2021/04/11 09:48:44;;;;;;;2.57;1.27;;;;;;;;;;5066386;28;20038;-65
2021/04/11 09:51:22;;;;;;;2.90;1.30;;;;;;;;;;5061064;28;20033;-65
2021/04/11 09:53:56;;;;;;;3.37;1.40;;;;;;;;;;5057995;28;20054;-65
2021/04/11 09:56:22;;;;;;;2.67;1.40;;;;;;;;;;5055154;28;20393;-65
2021/04/11 09:58:59;;;;;;;2.60;1.30;;;;;;;;;;5060415;28;20028;-65
2021/04/11 10:01:53;;;;;;;2.37;0.90;;;;;;;;;;5054500;28;20029;-65
2021/04/11 10:04:28;;;;;;;1.97;1.00;;;;;;;;;;5045219;28;20111;-65
2021/04/11 10:06:53;;;;;;;2.37;1.27;;;;;;;;;;5054227;28;20049;-65
2021/04/11 10:09:26;;;;;;;2.67;1.03;;;;;;;;;;5054366;28;20043;-65
2021/04/11 10:12:12;;;;;;;3.00;0.80;;;;;;;;;;5051591;28;20115;-65
2021/04/11 10:14:43;;;;;;;2.87;1.03;;;;;;;;;;5054500;28;20032;-65
2021/04/11 10:17:14;;;;;;;1.80;0.90;;;;;;;;;;5055959;28;20286;-65
2021/04/11 10:19:58;;;;;;;4.40;1.00;;;;;;;;;;5060292;28;20013;-65
2021/04/11 10:22:28;;;;;;;2.63;1.20;;;;;;;;;;5058423;28;20020;-65
2021/04/11 10:25:12;;;;;;;1.50;0.77;;;;;;;;;;5060838;28;20282;-65
2021/04/11 10:27:42;;;;;;;1.63;0.90;;;;;;;;;;5064857;28;20031;-65
2021/04/11 10:30:09;;;;;;;3.03;0.90;;;;;;;;;;5065548;28;20274;-65
2021/04/11 10:32:41;;;;;;;2.07;0.90;;;;;;;;;;5059380;28;20032;-65
2021/04/11 10:35:11;;;;;;;3.85;0.95;;;;;;;;;;5053811;28;20119;-65
2021/04/11 10:38:12;;;;;;;2.90;0.80;;;;;;;;;;5061951;28;20465;-65
2021/04/11 10:40:43;;;;;;;2.13;0.97;;;;;;;;;;4985949;28;20030;-66
2021/04/11 10:43:20;;;;;;;1.43;0.80;;;;;;;;;;5054223;28;20032;-65
2021/04/11 10:45:56;;;;;;;1.13;0.77;;;;;;;;;;5060679;28;20050;-65
2021/04/11 10:48:40;;;;;;;1.47;0.80;;;;;;;;;;5061547;28;20533;-66
2021/04/11 10:51:24;;;;;;;2.70;1.00;;;;;;;;;;5061058;28;20118;-65
2021/04/11 10:54:08;;;;;;;0.90;0.70;;;;;;;;;;5062914;28;20036;-66
2021/04/11 10:56:42;;;;;;;1.53;0.80;;;;;;;;;;5060442;28;20158;-66
2021/04/11 10:59:13;;;;;;;1.47;0.70;;;;;;;;;;5056739;28;20639;-66
2021/04/11 11:01:38;;;;;;;1.50;0.80;;;;;;;;;;5066108;28;20037;-66
2021/04/11 11:04:22;;;;;;;1.60;0.60;;;;;;;;;;5059575;28;20028;-66
2021/04/11 11:07:06;;;;;;;1.57;0.80;;;;;;;;;;5066884;28;20049;-66
2021/04/11 11:09:55;;;;;;;1.63;1.00;;;;;;;;;;5067398;28;20040;-66
2021/04/11 11:12:23;;;;;;;2.00;0.70;;;;;;;;;;5063383;28;20408;-65
2021/04/11 11:14:57;;;;;;;1.37;0.77;;;;;;;;;;5060715;28;20044;-65
2021/04/11 11:17:28;;;;;;;1.77;0.80;;;;;;;;;;5060209;28;20028;-66
2021/04/11 11:20:06;;;;;;;1.80;0.80;;;;;;;;;;5061396;28;20033;-66
2021/04/11 11:22:43;;;;;;;1.40;0.70;;;;;;;;;;5061620;28;20057;-65
2021/04/11 11:25:27;;;;;;;1.13;0.50;;;;;;;;;;5059296;28;20029;-66
2021/04/11 11:28:11;;;;;;;1.27;0.70;;;;;;;;;;5061306;28;20389;-66
2021/04/11 11:30:55;;;;;;;3.67;0.70;;;;;;;;;;5061591;28;20053;-65
2021/04/11 11:33:22;;;;;;;1.13;0.60;;;;;;;;;;5066867;28;20042;-65
2021/04/11 11:35:50;;;;;;;2.83;0.90;;;;;;;;;;5054218;28;20102;-66
2021/04/11 11:38:19;;;;;;;2.50;0.60;;;;;;;;;;5056073;28;20024;-66
2021/04/11 11:41:00;;;;;;;1.07;0.70;;;;;;;;;;5062940;28;20451;-66
2021/04/11 11:43:28;;;;;;;2.07;0.80;;;;;;;;;;5067285;28;20111;-66
2021/04/11 11:45:59;;;;;;;2.00;0.83;;;;;;;;;;5057483;28;20040;-66
2021/04/11 11:48:35;;;;;;;1.20;0.63;;;;;;;;;;5057503;28;20040;-65
2021/04/11 11:51:21;;;;;;;1.27;0.70;;;;;;;;;;5059311;28;20028;-66
2021/04/11 11:53:57;;;;;;;1.83;0.67;;;;;;;;;;5037029;28;20047;-66
2021/04/11 11:56:31;;;;;;;2.47;0.73;;;;;;;;;;5053023;28;20041;-66
2021/04/11 11:59:02;;;;;;;2.30;0.90;;;;;;;;;;5054264;28;20376;-66
2021/04/11 12:01:31;;;;;;;1.23;0.73;;;;;;;;;;5063706;28;20025;-66
2021/04/11 12:04:09;;;;;;;1.23;0.70;;;;;;;;;;5064781;28;20036;-66
2021/04/11 12:06:39;;;;;;;2.27;1.07;;;;;;;;;;5062275;28;20110;-66
2021/04/11 12:09:07;;;;;;;1.53;0.80;;;;;;;;;;5059984;28;20039;-65
2021/04/11 12:11:32;;;;;;;1.87;1.10;;;;;;;;;;5060008;28;20040;-66
2021/04/11 12:14:18;;;;;;;3.77;0.80;;;;;;;;;;5058405;28;20036;-65
2021/04/11 12:16:48;;;;;;;3.13;0.70;;;;;;;;;;5048933;28;20123;-65
2021/04/11 12:19:23;;;;;;;1.10;0.60;;;;;;;;;;5061880;28;20028;-65
2021/04/11 12:21:53;;;;;;;3.30;0.90;;;;;;;;;;5062593;28;20430;-65
2021/04/11 12:24:30;;;;;;;1.97;0.90;;;;;;;;;;5063268;28;20489;-66
2021/04/11 12:26:57;;;;;;;2.07;0.80;;;;;;;;;;5061074;28;20028;-67
2021/04/11 12:29:23;;;;;;;2.30;0.93;;;;;;;;;;5056370;28;20427;-65
2021/04/11 12:32:01;;;;;;;2.60;0.70;;;;;;;;;;5060890;28;20025;-65
2021/04/11 12:34:34;;;;;;;3.30;0.90;;;;;;;;;;5059402;28;20028;-65
2021/04/11 12:37:08;;;;;;;2.03;0.80;;;;;;;;;;5064850;28;20119;-66
2021/04/11 12:39:34;;;;;;;0.93;0.53;;;;;;;;;;5057752;28;20387;-66
2021/04/11 12:42:02;;;;;;;1.47;0.60;;;;;;;;;;5062250;28;20031;-66
2021/04/11 12:44:33;;;;;;;1.33;0.77;;;;;;;;;;5059992;28;20171;-66
2021/04/11 12:46:59;;;;;;;1.90;0.70;;;;;;;;;;5061595;28;20057;-66
2021/04/11 12:49:28;;;;;;;2.50;0.80;;;;;;;;;;5056260;28;20032;-66
2021/04/11 12:51:58;;;;;;;1.80;0.70;;;;;;;;;;5053148;28;20391;-66
2021/04/11 12:54:32;;;;;;;1.33;0.90;;;;;;;;;;5062522;28;20032;-66
2021/04/11 12:57:00;;;;;;;2.00;0.97;;;;;;;;;;5058472;28;20544;-66
2021/04/11 12:59:30;;;;;;;1.00;0.60;;;;;;;;;;5058172;28;20288;-66
2021/04/11 13:01:57;;;;;;;3.17;0.90;;;;;;;;;;5066039;28;20026;-66
2021/04/11 13:04:38;;;;;;;2.80;0.87;;;;;;;;;;5058498;28;20134;-66
2021/04/11 13:07:14;;;;;;;3.30;0.70;;;;;;;;;;5049643;28;20486;-66
2021/04/11 13:09:53;;;;;;;1.73;0.90;;;;;;;;;;5056929;28;20024;-66
2021/04/11 13:12:21;;;;;;;2.33;0.90;;;;;;;;;;5057824;28;20039;-66
2021/04/11 13:15:04;;;;;;;1.57;1.10;;;;;;;;;;5062041;28;20040;-66
2021/04/11 13:17:43;;;;;;;1.75;0.80;;;;;;;;;;5051157;28;20036;-66
2021/04/11 13:20:08;;;;;;;2.87;1.17;;;;;;;;;;5065361;28;20042;-66
2021/04/11 13:22:46;;;;;;;3.10;1.17;;;;;;;;;;5052558;28;20025;-66
2021/04/11 13:25:26;;;;;;;2.50;1.00;;;;;;;;;;5055515;28;20028;-66
2021/04/11 13:27:57;;;;;;;3.00;0.97;;;;;;;;;;5067076;28;20108;-66
2021/04/11 13:30:28;;;;;;;2.33;0.83;;;;;;;;;;5064864;28;20033;-66
2021/04/11 13:33:32;;;;;;;2.30;0.90;;;;;;;;;;5057274;28;20028;-66
2021/04/11 13:35:58;;;;;;;2.20;0.90;;;;;;;;;;5013823;28;20036;-66
2021/04/11 13:38:26;;;;;;;2.00;0.90;;;;;;;;;;5015665;28;20508;-66
2021/04/11 13:41:03;;;;;;;2.90;1.03;;;;;;;;;;5034992;28;20108;-66
2021/04/11 13:43:32;;;;;;;4.93;1.27;;;;;;;;;;5054063;28;20353;-66
2021/04/11 13:46:03;;;;;;;2.30;0.90;;;;;;;;;;5048585;28;20097;-66
2021/04/11 13:48:38;;;;;;;2.53;0.97;;;;;;;;;;5062263;28;20033;-66
2021/04/11 13:51:06;;;;;;;4.27;1.27;;;;;;;;;;5061255;28;20474;-66
2021/04/11 13:53:42;;;;;;;3.37;1.50;;;;;;;;;;5060201;28;20033;-66
2021/04/11 13:56:10;;;;;;;2.03;1.00;;;;;;;;;;5066202;28;20486;-66
2021/04/11 13:58:39;;;;;;;2.10;0.90;;;;;;;;;;5064034;28;20130;-66
2021/04/11 14:01:08;;;;;;;2.93;1.03;;;;;;;;;;5060695;28;20472;-66
2021/04/11 14:03:39;;;;;;;1.43;0.90;;;;;;;;;;5068885;28;20089;-66
2021/04/11 14:06:18;;;;;;;2.03;1.00;;;;;;;;;;5059857;28;20079;-66
2021/04/11 14:09:13;;;;;;;2.67;0.80;;;;;;;;;;5056318;28;20044;-66
2021/04/11 14:11:41;;;;;;;2.27;0.80;;;;;;;;;;5056444;28;20511;-66
2021/04/11 14:14:07;;;;;;;1.63;0.93;;;;;;;;;;5067909;28;20055;-66
2021/04/11 14:16:44;;;;;;;1.80;1.00;;;;;;;;;;5060374;28;20123;-66
2021/04/11 14:19:16;;;;;;;3.30;1.10;;;;;;;;;;5063348;28;20029;-66
2021/04/11 14:21:44;;;;;;;2.33;0.98;;;;;;;;;;5063993;28;20429;-66
2021/04/11 14:24:30;;;;;;;3.50;0.80;;;;;;;;;;5056929;28;20055;-66
2021/04/11 14:27:03;;;;;;;1.93;0.80;;;;;;;;;;5060436;28;20023;-66
2021/04/11 14:29:28;;;;;;;;;;;;;;;;;;5066344;28;20032;-66
2021/04/11 14:32:01;;;;;;;4.88;0.90;;;;;;;;;;5066776;28;20005;-66
2021/04/11 14:34:30;;;;;;;4.13;1.10;;;;;;;;;;5063086;28;20036;-66
2021/04/11 14:37:05;;;;;;;2.50;0.87;;;;;;;;;;5055942;28;20037;-66
2021/04/11 14:39:51;;;;;;;1.77;0.90;;;;;;;;;;5064366;28;20029;-67
2021/04/11 14:42:21;;;;;;;2.07;0.93;;;;;;;;;;5052668;28;20044;-67
2021/04/11 14:44:50;;;;;;;1.40;0.90;;;;;;;;;;5059950;28;20037;-66
2021/04/11 14:47:41;;;;;;;2.63;1.00;;;;;;;;;;5063646;28;20111;-66
2021/04/11 14:50:07;;;;;;;3.53;1.00;;;;;;;;;;5060691;28;20032;-67
2021/04/11 14:52:51;;;;;;;5.30;1.00;;;;;;;;;;5068230;28;20090;-66
2021/04/11 14:55:22;;;;;;;3.27;0.83;;;;;;;;;;5054494;28;20048;-66
2021/04/11 14:57:53;;;;;;;2.37;1.00;;;;;;;;;;5063838;28;20090;-66
2021/04/11 15:00:51;;;;;;;2.87;1.00;;;;;;;;;;5067444;28;20086;-66
2021/04/11 15:03:19;;;;;;;3.70;1.00;;;;;;;;;;5038101;28;20064;-67
2021/04/11 15:06:04;;;;;;;4.03;1.17;;;;;;;;;;5064708;28;20045;-67